Time;durP1;ratioP1;P1;durP2;ratioP2;P2;SDS_P1;SDS_P2;PMS_P1;PMS_P2;Temp;Humidity;BMP_temperature;BMP_pressure;BME280_temperature;BME280_humidity;BME280_pressure;Samples;Min_cycle;Max_cycle;Signal;HPM_P1;HPM_P2
2023/05/31 00:00:56;;;;;;;;;;;;;;;17.73;44.02;98629.03;7393808;19;20275;-79
2023/05/31 00:03:23;;;;;;;;;;;;;;;17.70;44.38;98617.91;7396246;19;19914;-80
2023/05/31 00:05:50;;;;;;;;;;;;;;;17.69;43.28;98619.75;7392559;19;19922;-80
2023/05/31 00:08:17;;;;;;;;;;;;;;;17.67;43.43;98612.94;7394801;19;19925;-79
2023/05/31 00:10:44;;;;;;;;;;;;;;;17.64;41.13;98615.97;7393687;19;19921;-80
2023/05/31 00:13:10;;;;;;;;;;;;;;;17.60;42.51;98615.56;7389042;19;19922;-80
2023/05/31 00:15:37;;;;;;;;;;;;;;;17.55;39.79;98621.47;7395130;19;20328;-80
2023/05/31 00:18:04;;;;;;;;;;;;;;;17.53;40.25;98609.31;7394208;19;19918;-79
2023/05/31 00:20:30;;;;;;;;;;;;;;;17.51;43.00;98619.41;7394908;19;20268;-78
2023/05/31 00:22:58;;;;;;;;;;;;;;;17.50;42.96;98615.88;7392436;19;19927;-79
2023/05/31 00:25:25;;;;;;;;;;;;;;;17.50;42.97;98618.56;7394654;19;19927;-80
2023/05/31 00:27:52;;;;;;;;;;;;;;;17.48;41.52;98619.78;7388681;19;20628;-79
2023/05/31 00:30:18;;;;;;;;;;;;;;;17.43;42.94;98622.19;7388300;19;19947;-80
2023/05/31 00:32:46;;;;;;;;;;;;;;;17.35;43.21;98625.84;7381598;19;20025;-81
2023/05/31 00:35:13;;;;;;;;;;;;;;;17.36;41.10;98621.34;7391678;19;19939;-80
2023/05/31 00:37:41;;;;;;;;;;;;;;;17.33;42.41;98622.56;7384403;19;19923;-78
2023/05/31 00:40:08;;;;;;;;;;;;;;;17.36;42.20;98624.03;7394463;19;19929;-79
2023/05/31 00:42:35;;;;;;;;;;;;;;;17.38;44.84;98620.13;7391618;19;19910;-80
2023/05/31 00:45:05;;;;;;;;;;;;;;;17.33;42.57;98615.34;7383638;19;20487;-80
2023/05/31 00:47:33;;;;;;;;;;;;;;;17.35;43.25;98617.81;7383814;19;22313;-79
2023/05/31 00:50:00;;;;;;;;;;;;;;;17.29;41.71;98607.91;7388809;19;19927;-79
2023/05/31 00:52:31;;;;;;;;;;;;;;;17.37;41.27;98612.28;7386121;19;19919;-80
2023/05/31 00:54:57;;;;;;;;;;;;;;;17.36;43.64;98602.63;7389361;19;19922;-80
2023/05/31 00:57:27;;;;;;;;;;;;;;;17.34;43.50;98608.16;7385228;19;19923;-80
2023/05/31 00:59:54;;;;;;;;;;;;;;;17.33;43.54;98609.19;7390226;19;19921;-78
2023/05/31 01:02:21;;;;;;;;;;;;;;;17.35;43.56;98615.13;7386022;19;20619;-80
2023/05/31 01:04:48;;;;;;;;;;;;;;;17.28;40.72;98607.09;7385022;19;20321;-78
2023/05/31 01:07:15;;;;;;;;;;;;;;;17.31;42.95;98613.88;7387494;19;20261;-81
2023/05/31 01:09:44;;;;;;;;;;;;;;;17.32;44.02;98615.53;7389830;19;19923;-80
2023/05/31 01:12:21;;;;;;;;;;;;;;;17.31;42.41;98603.19;7394575;19;19922;-82
2023/05/31 01:14:51;;;;;;;;;;;;;;;17.32;43.10;98607.50;7390972;19;19940;-80
2023/05/31 01:17:30;;;;;;;;;;;;;;;17.26;42.28;98610.97;7391494;19;20354;-80
2023/05/31 01:19:58;;;;;;;;;;;;;;;17.16;42.43;98610.47;7389574;19;19954;-79
2023/05/31 01:22:47;;;;;;;;;;;;;;;17.16;43.04;98613.97;7388612;19;20341;-80
2023/05/31 01:25:20;;;;;;;;;;;;;;;17.10;42.63;98606.72;7390124;19;19996;-80
2023/05/31 01:27:47;;;;;;;;;;;;;;;17.09;43.20;98611.25;7391948;19;19915;-78
2023/05/31 01:30:14;;;;;;;;;;;;;;;17.10;43.52;98612.06;7388380;19;19937;-79
2023/05/31 01:32:44;;;;;;;;;;;;;;;17.11;42.83;98611.88;7388157;19;19939;-80
2023/05/31 01:35:13;;;;;;;;;;;;;;;17.09;42.31;98616.59;7385967;19;19974;-80
2023/05/31 01:37:40;;;;;;;;;;;;;;;17.05;41.71;98615.31;7387001;19;20713;-80
2023/05/31 01:40:14;;;;;;;;;;;;;;;17.04;41.99;98618.19;7390831;19;19923;-80
2023/05/31 01:42:42;;;;;;;;;;;;;;;17.03;43.04;98622.69;7383534;19;19915;-79
2023/05/31 01:45:10;;;;;;;;;;;;;;;17.01;45.05;98622.06;7384796;19;20807;-80
2023/05/31 01:47:37;;;;;;;;;;;;;;;17.03;44.81;98622.69;7386221;19;19947;-79
2023/05/31 01:50:04;;;;;;;;;;;;;;;17.04;43.18;98619.00;7385439;19;19919;-81
2023/05/31 01:52:31;;;;;;;;;;;;;;;17.05;41.17;98627.84;7380608;19;19919;-80
2023/05/31 01:54:58;;;;;;;;;;;;;;;17.01;41.13;98623.88;7384365;19;19922;-80
2023/05/31 01:57:29;;;;;;;;;;;;;;;16.97;41.82;98623.44;7387350;19;19910;-80
2023/05/31 01:59:57;;;;;;;;;;;;;;;16.90;40.88;98625.22;7383633;19;19919;-81
2023/05/31 02:02:25;;;;;;;;;;;;;;;16.87;40.58;98628.28;7387375;19;19914;-79
2023/05/31 02:05:03;;;;;;;;;;;;;;;16.86;42.21;98627.47;7383034;19;19914;-81
2023/05/31 02:07:31;;;;;;;;;;;;;;;16.82;42.22;98625.34;7383986;19;19971;-81
2023/05/31 02:09:58;;;;;;;;;;;;;;;16.79;42.67;98628.41;7382026;19;20000;-80
2023/05/31 02:12:24;;;;;;;;;;;;;;;16.78;43.94;98626.75;7388235;19;19939;-81
2023/05/31 02:14:51;;;;;;;;;;;;;;;16.78;43.26;98629.44;7383517;19;19922;-82
2023/05/31 02:17:23;;;;;;;;;;;;;;;16.70;43.22;98621.50;7386776;19;19926;-79
2023/05/31 02:19:50;;;;;;;;;;;;;;;16.65;42.95;98622.88;7385209;19;19943;-79
2023/05/31 02:22:17;;;;;;;;;;;;;;;16.64;42.73;98621.25;7384524;19;19915;-79
2023/05/31 02:24:44;;;;;;;;;;;;;;;16.65;44.23;98622.88;7376007;19;19914;-80
2023/05/31 02:27:14;;;;;;;;;;;;;;;16.64;43.50;98612.38;7378749;19;19915;-79
2023/05/31 02:29:41;;;;;;;;;;;;;;;16.64;44.91;98621.25;7385888;19;19942;-79
2023/05/31 02:32:08;;;;;;;;;;;;;;;16.62;44.51;98620.59;7386896;19;19919;-79
2023/05/31 02:34:34;;;;;;;;;;;;;;;16.64;44.49;98623.91;7383829;19;20010;-79
2023/05/31 02:37:02;;;;;;;;;;;;;;;16.65;44.67;98620.22;7383323;19;20397;-79
2023/05/31 02:39:29;;;;;;;;;;;;;;;16.62;44.87;98620.59;7382352;19;19927;-80
2023/05/31 02:42:02;;;;;;;;;;;;;;;16.62;43.68;98620.59;7380236;19;20375;-80
2023/05/31 02:44:28;;;;;;;;;;;;;;;16.63;43.80;98614.22;7377880;19;19974;-80
2023/05/31 02:46:55;;;;;;;;;;;;;;;16.61;44.77;98618.94;7382447;19;19932;-81
2023/05/31 02:49:22;;;;;;;;;;;;;;;16.59;44.36;98614.81;7383405;19;19929;-80
2023/05/31 02:51:49;;;;;;;;;;;;;;;16.55;45.21;98609.00;7383117;19;19936;-80
2023/05/31 02:54:34;;;;;;;;;;;;;;;16.57;44.76;98614.16;7383461;19;19925;-78
2023/05/31 02:57:03;;;;;;;;;;;;;;;16.53;46.25;98620.88;7383509;19;19951;-82
2023/05/31 02:59:33;;;;;;;;;;;;;;;16.51;45.88;98615.75;7383171;19;19918;-79
2023/05/31 03:02:04;;;;;;;;;;;;;;;16.50;43.74;98616.75;7379161;19;20345;-79
2023/05/31 03:04:41;;;;;;;;;;;;;;;16.52;45.99;98616.56;7382338;19;19923;-79
2023/05/31 03:07:08;;;;;;;;;;;;;;;16.49;44.37;98620.44;7380569;19;20362;-77
2023/05/31 03:09:36;;;;;;;;;;;;;;;16.44;46.58;98621.00;7382739;19;19923;-79
2023/05/31 03:12:03;;;;;;;;;;;;;;;16.46;45.98;98620.81;7382921;19;19915;-79
2023/05/31 03:14:31;;;;;;;;;;;;;;;16.42;45.38;98623.03;7382854;19;20337;-79
2023/05/31 03:16:58;;;;;;;;;;;;;;;16.41;46.33;98615.22;7386435;19;20475;-80
2023/05/31 03:19:25;;;;;;;;;;;;;;;16.36;44.32;98614.94;7387956;19;19952;-79
2023/05/31 03:21:52;;;;;;;;;;;;;;;16.38;45.94;98613.75;7383767;19;19974;-78
2023/05/31 03:24:19;;;;;;;;;;;;;;;16.34;44.99;98619.63;7388436;19;19927;-80
2023/05/31 03:26:48;;;;;;;;;;;;;;;16.36;47.25;98620.28;7389156;19;20344;-79
2023/05/31 03:29:16;;;;;;;;;;;;;;;16.34;46.65;98620.47;7388081;19;19919;-77
2023/05/31 03:31:45;;;;;;;;;;;;;;;16.34;46.16;98622.31;7383907;19;19970;-78
2023/05/31 03:34:11;;;;;;;;;;;;;;;16.30;46.75;98618.34;7385079;19;19942;-78
2023/05/31 03:36:41;;;;;;;;;;;;;;;16.32;47.63;98611.81;7387194;19;21373;-80
2023/05/31 03:39:31;;;;;;;;;;;;;;;16.31;49.02;98622.69;7385494;19;19930;-79
2023/05/31 03:42:00;;;;;;;;;;;;;;;16.30;47.46;98619.19;7386897;19;19918;-79
2023/05/31 03:44:29;;;;;;;;;;;;;;;16.20;46.34;98621.31;7388978;19;19933;-81
2023/05/31 03:46:55;;;;;;;;;;;;;;;16.23;45.59;98623.63;7386112;19;19962;-78
2023/05/31 03:49:22;;;;;;;;;;;;;;;16.24;48.12;98620.78;7385916;19;20458;-81
2023/05/31 03:51:49;;;;;;;;;;;;;;;16.23;46.80;98631.63;7386018;19;19957;-80
2023/05/31 03:54:16;;;;;;;;;;;;;;;16.22;48.52;98625.47;7388884;19;19918;-80
2023/05/31 03:56:43;;;;;;;;;;;;;;;16.15;48.17;98624.53;7390060;19;20350;-79
2023/05/31 03:59:10;;;;;;;;;;;;;;;16.16;47.21;98625.38;7383531;19;19958;-78
2023/05/31 04:01:38;;;;;;;;;;;;;;;16.12;45.67;98619.56;7389527;19;19958;-82
2023/05/31 04:04:05;;;;;;;;;;;;;;;16.17;47.07;98627.03;7387857;19;19914;-80
2023/05/31 04:06:32;;;;;;;;;;;;;;;16.17;48.10;98630.53;7385314;19;19964;-80
2023/05/31 04:08:58;;;;;;;;;;;;;;;16.15;49.08;98629.06;7386967;19;19959;-82
2023/05/31 04:11:29;;;;;;;;;;;;;;;16.16;47.29;98636.03;7388014;19;20336;-80
2023/05/31 04:13:58;;;;;;;;;;;;;;;16.22;50.10;98635.31;7384655;19;19919;-80
2023/05/31 04:16:32;;;;;;;;;;;;;;;16.16;47.04;98636.84;7390087;19;19925;-79
2023/05/31 04:18:59;;;;;;;;;;;;;;;16.22;49.01;98641.47;7387659;19;19918;-82
2023/05/31 04:21:32;;;;;;;;;;;;;;;16.21;49.20;98645.13;7379975;19;19982;-78
2023/05/31 04:23:59;;;;;;;;;;;;;;;16.31;49.75;98641.38;7381589;19;19922;-79
2023/05/31 04:26:27;;;;;;;;;;;;;;;16.29;48.77;98646.88;7392832;19;19918;-78
2023/05/31 04:28:54;;;;;;;;;;;;;;;16.28;50.38;98644.41;7388217;19;19935;-78
2023/05/31 04:31:24;;;;;;;;;;;;;;;16.35;49.39;98642.63;7387148;19;19921;-81
2023/05/31 04:34:08;;;;;;;;;;;;;;;16.38;47.91;98647.63;7386339;19;19915;-79
2023/05/31 04:36:36;;;;;;;;;;;;;;;16.39;49.80;98650.09;7388282;19;19957;-78
2023/05/31 04:39:05;;;;;;;;;;;;;;;16.35;47.12;98639.97;7381273;19;20400;-79
2023/05/31 04:41:32;;;;;;;;;;;;;;;16.45;49.10;98659.22;7382026;19;19979;-80
2023/05/31 04:43:59;;;;;;;;;;;;;;;16.43;47.28;98658.59;7390393;19;19923;-80
2023/05/31 04:46:25;;;;;;;;;;;;;;;16.52;50.19;98659.31;7390101;19;19935;-79
2023/05/31 04:48:52;;;;;;;;;;;;;;;16.55;50.82;98661.59;7384995;19;19926;-80
2023/05/31 04:51:19;;;;;;;;;;;;;;;16.52;48.20;98657.47;7387723;19;20334;-82
2023/05/31 04:53:46;;;;;;;;;;;;;;;16.53;48.86;98656.44;7387675;19;19940;-79
2023/05/31 04:56:14;;;;;;;;;;;;;;;16.46;45.22;98658.22;7388356;19;20341;-80
2023/05/31 04:58:41;;;;;;;;;;;;;;;16.52;48.26;98656.63;7386800;19;19960;-80
2023/05/31 05:01:08;;;;;;;;;;;;;;;16.51;45.64;98658.47;7387993;19;20314;-81
2023/05/31 05:03:42;;;;;;;;;;;;;;;16.51;47.78;98655.81;7380733;19;19921;-79
2023/05/31 05:06:13;;;;;;;;;;;;;;;16.53;47.87;98658.28;7386706;19;20004;-81
2023/05/31 05:08:40;;;;;;;;;;;;;;;16.55;46.68;98657.06;7386413;19;19918;-80
2023/05/31 05:11:07;;;;;;;;;;;;;;;16.61;49.38;98656.34;7386450;19;19926;-80
2023/05/31 05:13:34;;;;;;;;;;;;;;;16.59;46.30;98652.22;7386109;19;19918;-81
2023/05/31 05:16:02;;;;;;;;;;;;;;;16.62;46.22;98660.66;7386256;19;19967;-79
2023/05/31 05:18:30;;;;;;;;;;;;;;;16.64;47.31;98663.97;7389223;19;19949;-80
2023/05/31 05:21:00;;;;;;;;;;;;;;;16.66;47.00;98664.59;7388024;19;20663;-81
2023/05/31 05:23:31;;;;;;;;;;;;;;;16.73;47.02;98669.22;7383266;19;20269;-80
2023/05/31 05:25:59;;;;;;;;;;;;;;;16.76;47.15;98677.66;7383256;19;19938;-79
2023/05/31 05:28:28;;;;;;;;;;;;;;;16.81;46.85;98671.78;7385381;19;19925;-80
2023/05/31 05:30:58;;;;;;;;;;;;;;;16.81;46.21;98674.47;7383512;19;19923;-80
2023/05/31 05:33:29;;;;;;;;;;;;;;;16.82;45.78;98668.09;7385157;19;19986;-80
2023/05/31 05:35:57;;;;;;;;;;;;;;;16.86;46.68;98677.41;7381238;19;19974;-79
2023/05/31 05:38:24;;;;;;;;;;;;;;;16.87;45.25;98669.19;7385613;19;19930;-81
2023/05/31 05:40:52;;;;;;;;;;;;;;;16.92;46.61;98671.28;7385681;19;20374;-82
2023/05/31 05:43:19;;;;;;;;;;;;;;;16.86;46.48;98675.56;7386278;19;19929;-79
2023/05/31 05:46:02;;;;;;;;;;;;;;;16.95;46.41;98676.25;7379729;19;20456;-79
2023/05/31 05:48:29;;;;;;;;;;;;;;;17.02;48.58;98679.03;7386249;19;20253;-82
2023/05/31 05:50:57;;;;;;;;;;;;;;;17.05;48.28;98682.13;7386586;19;19974;-81
2023/05/31 05:53:26;;;;;;;;;;;;;;;17.09;46.60;98686.09;7380790;19;19919;-79
2023/05/31 05:55:53;;;;;;;;;;;;;;;17.16;46.10;98682.66;7384146;19;19914;-80
2023/05/31 05:58:25;;;;;;;;;;;;;;;17.15;45.22;98681.00;7383531;19;19967;-80
2023/05/31 06:01:02;;;;;;;;;;;;;;;17.24;45.91;98685.19;7386949;19;19926;-82
2023/05/31 06:03:31;;;;;;;;;;;;;;;17.30;44.46;98676.44;7381407;19;20022;-79
2023/05/31 06:06:01;;;;;;;;;;;;;;;17.32;45.63;98685.06;7378741;19;19951;-79
2023/05/31 06:08:27;;;;;;;;;;;;;;;17.39;44.78;98682.47;7383570;19;20015;-82
2023/05/31 06:10:54;;;;;;;;;;;;;;;17.39;43.22;98679.78;7385201;19;20209;-81
2023/05/31 06:13:21;;;;;;;;;;;;;;;17.49;45.43;98681.13;7379373;19;19922;-77
2023/05/31 06:15:48;;;;;;;;;;;;;;;17.60;46.86;98684.28;7382137;19;19933;-79
2023/05/31 06:18:15;;;;;;;;;;;;;;;17.67;47.55;98682.50;7382458;19;19927;-80
2023/05/31 06:20:46;;;;;;;;;;;;;;;17.75;46.35;98679.69;7382276;19;19915;-81
2023/05/31 06:23:14;;;;;;;;;;;;;;;17.81;45.17;98676.25;7377041;19;19918;-80
2023/05/31 06:25:41;;;;;;;;;;;;;;;17.80;43.99;98679.97;7386617;19;19919;-78
2023/05/31 06:28:08;;;;;;;;;;;;;;;17.85;43.65;98682.03;7383294;19;19919;-77
2023/05/31 06:30:36;;;;;;;;;;;;;;;17.92;45.64;98675.72;7385993;19;20326;-81
2023/05/31 06:33:03;;;;;;;;;;;;;;;17.92;45.39;98673.03;7382988;19;19925;-81
2023/05/31 06:35:30;;;;;;;;;;;;;;;17.99;45.18;98681.13;7381656;19;19922;-80
2023/05/31 06:37:57;;;;;;;;;;;;;;;18.06;46.65;98670.44;7378713;19;19992;-78
2023/05/31 06:40:27;;;;;;;;;;;;;;;18.09;45.16;98670.88;7378846;19;19938;-78
2023/05/31 06:42:54;;;;;;;;;;;;;;;18.17;43.81;98668.06;7374858;19;19979;-81
2023/05/31 06:45:47;;;;;;;;;;;;;;;18.27;42.29;98670.34;7386145;19;20272;-80
2023/05/31 06:48:15;;;;;;;;;;;;;;;18.31;47.15;98668.94;7393432;19;19918;-78
2023/05/31 06:51:01;;;;;;;;;;;;;;;18.39;44.07;98667.97;7386686;19;19950;-79
2023/05/31 06:53:34;;;;;;;;;;;;;;;18.45;43.70;98669.81;7385540;19;19921;-81
2023/05/31 06:56:13;;;;;;;;;;;;;;;18.47;44.33;98658.94;7387460;19;19989;-79
2023/05/31 06:58:41;;;;;;;;;;;;;;;18.53;43.11;98660.78;7390820;19;19915;-78
2023/05/31 07:01:08;;;;;;;;;;;;;;;18.53;42.56;98663.47;7393256;19;19954;-80
2023/05/31 07:03:35;;;;;;;;;;;;;;;18.60;42.75;98653.63;7388311;19;19946;-79
2023/05/31 07:06:02;;;;;;;;;;;;;;;18.63;43.52;98646.00;7385986;19;19926;-80
2023/05/31 07:08:29;;;;;;;;;;;;;;;18.76;43.82;98650.59;7385456;19;19936;-81
2023/05/31 07:11:17;;;;;;;;;;;;;;;18.81;42.80;98658.88;7389338;19;19926;-81
2023/05/31 07:13:44;;;;;;;;;;;;;;;18.74;44.87;98651.81;7391657;19;20553;-79
2023/05/31 07:16:11;;;;;;;;;;;;;;;18.80;43.23;98651.03;7389248;19;19918;-81
2023/05/31 07:18:38;;;;;;;;;;;;;;;18.81;43.10;98652.69;7390763;19;19942;-81
2023/05/31 07:21:08;;;;;;;;;;;;;;;18.84;43.42;98658.47;7389402;19;19978;-82
2023/05/31 07:23:34;;;;;;;;;;;;;;;18.85;42.07;98653.91;7387303;19;19923;-79
2023/05/31 07:26:02;;;;;;;;;;;;;;;18.93;45.11;98651.09;7385078;19;19945;-78
2023/05/31 07:28:28;;;;;;;;;;;;;;;18.93;42.62;98648.41;7389536;19;20474;-79
2023/05/31 07:30:55;;;;;;;;;;;;;;;19.05;42.25;98649.44;7389308;19;19994;-81
2023/05/31 07:33:22;;;;;;;;;;;;;;;19.01;43.27;98647.38;7390099;19;19919;-81
2023/05/31 07:35:54;;;;;;;;;;;;;;;19.09;41.63;98644.50;7387134;19;20264;-76
2023/05/31 07:38:24;;;;;;;;;;;;;;;19.21;42.81;98642.03;7389405;19;19919;-82
2023/05/31 07:40:51;;;;;;;;;;;;;;;19.26;43.14;98634.22;7390524;19;19923;-79
2023/05/31 07:43:21;;;;;;;;;;;;;;;19.34;42.80;98633.19;7380938;19;19927;-81
2023/05/31 07:45:48;;;;;;;;;;;;;;;19.34;43.40;98642.06;7392094;19;20001;-78
2023/05/31 07:48:16;;;;;;;;;;;;;;;19.39;40.88;98642.25;7393745;19;20366;-84
2023/05/31 07:50:43;;;;;;;;;;;;;;;19.39;41.17;98633.38;7395843;19;19925;-80
2023/05/31 07:53:09;;;;;;;;;;;;;;;19.53;41.35;98635.84;7390986;19;19927;-79
2023/05/31 07:55:37;;;;;;;;;;;;;;;19.57;39.02;98630.91;7392208;19;19925;-80
2023/05/31 07:58:03;;;;;;;;;;;;;;;19.59;41.31;98622.63;7387882;19;19919;-80
2023/05/31 08:00:30;;;;;;;;;;;;;;;19.69;39.64;98628.44;7387938;19;19925;-80
2023/05/31 08:03:00;;;;;;;;;;;;;;;19.79;42.16;98628.03;7385454;19;19922;-82
2023/05/31 08:05:28;;;;;;;;;;;;;;;19.82;40.70;98627.59;7388142;19;19998;-79
2023/05/31 08:07:54;;;;;;;;;;;;;;;19.86;41.35;98626.97;7392139;19;19990;-80
2023/05/31 08:10:21;;;;;;;;;;;;;;;19.93;40.02;98629.66;7392285;19;20365;-80
2023/05/31 08:12:48;;;;;;;;;;;;;;;19.94;40.21;98623.25;7389385;19;19915;-78
2023/05/31 08:15:15;;;;;;;;;;;;;;;19.93;40.11;98618.91;7387344;19;19929;-81
2023/05/31 08:17:46;;;;;;;;;;;;;;;20.08;40.45;98613.31;7385395;19;19989;-80
2023/05/31 08:20:15;;;;;;;;;;;;;;;20.18;41.47;98617.19;7384469;19;19926;-81
2023/05/31 08:22:44;;;;;;;;;;;;;;;20.20;39.73;98629.59;7384969;19;19919;-80
2023/05/31 08:25:16;;;;;;;;;;;;;;;20.31;41.48;98626.25;7387749;19;20586;-79
2023/05/31 08:27:43;;;;;;;;;;;;;;;20.38;39.39;98619.00;7388642;19;19919;-78
2023/05/31 08:30:10;;;;;;;;;;;;;;;20.43;40.15;98619.16;7384918;19;19929;-80
2023/05/31 08:32:37;;;;;;;;;;;;;;;20.44;41.42;98611.94;7383900;19;19931;-78
2023/05/31 08:35:06;;;;;;;;;;;;;;;20.42;39.17;98612.13;7385385;19;20353;-80
2023/05/31 08:37:33;;;;;;;;;;;;;;;20.51;39.35;98621.63;7387324;19;20314;-79
2023/05/31 08:39:59;;;;;;;;;;;;;;;20.58;39.99;98610.84;7390026;19;19918;-81
2023/05/31 08:42:49;;;;;;;;;;;;;;;20.60;40.36;98617.66;7391146;19;19922;-81
2023/05/31 08:45:17;;;;;;;;;;;;;;;20.54;37.41;98607.78;7388438;19;19939;-81
2023/05/31 08:47:45;;;;;;;;;;;;;;;20.69;39.32;98606.66;7388086;19;19991;-82
2023/05/31 08:50:12;;;;;;;;;;;;;;;20.61;38.74;98605.88;7387248;19;19918;-81
2023/05/31 08:52:39;;;;;;;;;;;;;;;20.71;38.02;98597.34;7387410;19;20609;-80
2023/05/31 08:55:09;;;;;;;;;;;;;;;20.85;38.49;98599.94;7388958;19;19915;-80
2023/05/31 08:57:36;;;;;;;;;;;;;;;20.91;38.63;98605.31;7389856;19;19936;-82
2023/05/31 09:00:11;;;;;;;;;;;;;;;20.91;39.16;98601.78;7389505;19;19919;-75
2023/05/31 09:02:38;;;;;;;;;;;;;;;20.96;37.70;98593.91;7386515;19;20341;-78
2023/05/31 09:05:06;;;;;;;;;;;;;;;21.06;38.81;98596.91;7386847;19;19922;-79
2023/05/31 09:07:32;;;;;;;;;;;;;;;21.13;40.02;98596.88;7383124;19;19922;-79
2023/05/31 09:10:02;;;;;;;;;;;;;;;21.17;39.64;98590.84;7384917;19;19974;-79
2023/05/31 09:12:30;;;;;;;;;;;;;;;21.26;38.32;98599.47;7388358;19;20904;-85
2023/05/31 09:14:57;;;;;;;;;;;;;;;21.34;38.55;98599.19;7384586;19;19933;-81
2023/05/31 09:17:33;;;;;;;;;;;;;;;21.38;38.53;98600.44;7386214;19;19949;-82
2023/05/31 09:20:00;;;;;;;;;;;;;;;21.44;37.82;98596.84;7387121;19;19930;-78
2023/05/31 09:22:33;;;;;;;;;;;;;;;21.51;38.46;98590.59;7381019;19;20286;-83
2023/05/31 09:25:00;;;;;;;;;;;;;;;21.56;37.56;98588.06;7381786;19;19926;-80
2023/05/31 09:27:34;;;;;;;;;;;;;;;21.60;38.57;98605.44;7386546;19;19914;-81
2023/05/31 09:30:19;;;;;;;;;;;;;;;21.59;37.60;98595.69;7384422;19;20340;-80
2023/05/31 09:32:52;;;;;;;;;;;;;;;21.61;34.89;98589.03;7388469;19;19921;-82
2023/05/31 09:35:20;;;;;;;;;;;;;;;21.88;37.00;98597.69;7386548;19;19911;-79
2023/05/31 09:37:47;;;;;;;;;;;;;;;22.21;36.84;98577.66;7386805;19;19914;-80
2023/05/31 09:40:26;;;;;;;;;;;;;;;22.50;34.99;98591.41;7379507;19;20294;-81
2023/05/31 09:42:53;;;;;;;;;;;;;;;22.56;35.31;98588.63;7381487;19;20310;-83
2023/05/31 09:45:20;;;;;;;;;;;;;;;22.67;35.07;98581.63;7383086;19;19919;-84
2023/05/31 09:47:50;;;;;;;;;;;;;;;22.72;34.75;98578.22;7386360;19;19922;-80
2023/05/31 09:50:20;;;;;;;;;;;;;;;22.68;31.66;98577.06;7384081;19;19927;-78
2023/05/31 09:52:51;;;;;;;;;;;;;;;23.07;35.26;98586.47;7384648;19;19936;-80
2023/05/31 09:55:18;;;;;;;;;;;;;;;23.24;32.34;98575.81;7381997;19;19947;-83
2023/05/31 09:57:46;;;;;;;;;;;;;;;23.66;32.90;98573.00;7382528;19;19954;-80
2023/05/31 10:00:17;;;;;;;;;;;;;;;24.08;33.60;98580.97;7380636;19;19922;-80
2023/05/31 10:02:44;;;;;;;;;;;;;;;24.23;30.82;98578.59;7384011;19;19954;-79
2023/05/31 10:05:14;;;;;;;;;;;;;;;24.38;31.45;98575.41;7385204;19;19943;-80
2023/05/31 10:07:41;;;;;;;;;;;;;;;24.59;30.51;98575.78;7386051;19;19931;-81
2023/05/31 10:10:08;;;;;;;;;;;;;;;24.96;30.14;98576.19;7384858;19;19933;-80
2023/05/31 10:12:51;;;;;;;;;;;;;;;25.51;29.36;98578.19;7383024;19;20348;-81
2023/05/31 10:15:19;;;;;;;;;;;;;;;26.00;30.16;98578.41;7381191;19;19926;-80
2023/05/31 10:17:56;;;;;;;;;;;;;;;26.07;28.36;98572.81;7383652;19;19921;-78
2023/05/31 10:20:24;;;;;;;;;;;;;;;26.39;27.93;98561.25;7380132;19;19920;-80
2023/05/31 10:22:51;;;;;;;;;;;;;;;26.45;28.44;98561.03;7381526;19;19931;-84
2023/05/31 10:25:27;;;;;;;;;;;;;;;26.28;27.03;98555.72;7381159;19;20359;-77
2023/05/31 10:27:55;;;;;;;;;;;;;;;26.25;28.18;98569.78;7384987;19;19915;-80
2023/05/31 10:30:25;;;;;;;;;;;;;;;26.22;27.22;98561.31;7380357;19;19918;-79
2023/05/31 10:32:55;;;;;;;;;;;;;;;26.06;29.57;98561.13;7382435;19;19919;-77
2023/05/31 10:35:22;;;;;;;;;;;;;;;25.97;28.40;98562.63;7383657;19;19978;-79
2023/05/31 10:37:53;;;;;;;;;;;;;;;25.71;29.08;98557.91;7381165;19;20732;-80
2023/05/31 10:40:38;;;;;;;;;;;;;;;25.44;29.40;98552.38;7376933;19;19919;-83
2023/05/31 10:43:23;;;;;;;;;;;;;;;24.84;28.90;98551.09;7382620;19;19923;-80
2023/05/31 10:46:15;;;;;;;;;;;;;;;24.40;29.82;98542.69;7378876;19;19983;-80
2023/05/31 10:48:51;;;;;;;;;;;;;;;24.03;31.18;98540.34;7384504;19;19935;-80
2023/05/31 10:51:18;;;;;;;;;;;;;;;23.89;31.47;98542.47;7384463;19;19982;-80
2023/05/31 10:53:46;;;;;;;;;;;;;;;23.90;32.95;98546.81;7385177;19;20341;-80
2023/05/31 10:56:13;;;;;;;;;;;;;;;23.94;32.46;98539.06;7386383;19;19967;-79
2023/05/31 10:58:42;;;;;;;;;;;;;;;23.91;31.18;98524.16;7386333;19;20335;-79
2023/05/31 11:01:21;;;;;;;;;;;;;;;23.97;32.29;98536.72;7380229;19;19951;-78
2023/05/31 11:03:51;;;;;;;;;;;;;;;23.96;31.72;98536.94;7383468;19;20183;-78
2023/05/31 11:06:22;;;;;;;;;;;;;;;23.97;32.89;98542.13;7382692;19;19918;-77
2023/05/31 11:09:08;;;;;;;;;;;;;;;23.99;31.95;98536.47;7388662;19;19979;-80
2023/05/31 11:11:40;;;;;;;;;;;;;;;23.92;31.58;98528.50;7392765;19;19923;-81
2023/05/31 11:14:08;;;;;;;;;;;;;;;23.66;29.59;98536.00;7386952;19;19914;-79
2023/05/31 11:17:06;;;;;;;;;;;;;;;23.66;29.67;98538.72;7379329;19;19919;-80
2023/05/31 11:19:34;;;;;;;;;;;;;;;23.72;31.45;98536.97;7377434;19;19951;-81
2023/05/31 11:22:07;;;;;;;;;;;;;;;23.74;31.33;98526.75;7383549;19;19922;-83
2023/05/31 11:24:53;;;;;;;;;;;;;;;23.64;31.50;98524.66;7385035;19;19918;-82
2023/05/31 11:27:23;;;;;;;;;;;;;;;23.65;32.47;98526.28;7384070;19;19942;-78
2023/05/31 11:29:52;;;;;;;;;;;;;;;23.70;30.34;98519.31;7384760;19;20352;-80
2023/05/31 11:32:20;;;;;;;;;;;;;;;23.62;29.74;98518.66;7384680;19;19914;-81
2023/05/31 11:35:00;;;;;;;;;;;;;;;23.67;29.98;98516.06;7391006;19;19925;-79
2023/05/31 11:37:27;;;;;;;;;;;;;;;23.70;31.11;98522.03;7383259;19;19922;-82
2023/05/31 11:39:55;;;;;;;;;;;;;;;23.66;31.49;98514.41;7394386;19;19923;-82
2023/05/31 11:42:21;;;;;;;;;;;;;;;23.69;31.62;98518.50;7392544;19;19936;-81
2023/05/31 11:44:49;;;;;;;;;;;;;;;23.64;30.05;98511.13;7391568;19;19923;-81
2023/05/31 11:47:20;;;;;;;;;;;;;;;23.66;30.67;98514.41;7389570;19;19926;-82
2023/05/31 11:49:47;;;;;;;;;;;;;;;23.59;29.68;98519.13;7395346;19;19919;-80
2023/05/31 11:52:14;;;;;;;;;;;;;;;23.54;32.08;98513.63;7390202;19;20403;-79
2023/05/31 11:54:43;;;;;;;;;;;;;;;23.55;29.77;98507.16;7389549;19;19936;-80
2023/05/31 11:57:09;;;;;;;;;;;;;;;23.57;31.01;98505.03;7386819;19;19914;-81
2023/05/31 11:59:37;;;;;;;;;;;;;;;23.64;29.57;98494.94;7391730;19;19955;-82
2023/05/31 12:02:07;;;;;;;;;;;;;;;23.65;30.84;98493.06;7392009;19;20420;-80
2023/05/31 12:04:36;;;;;;;;;;;;;;;23.64;30.96;98486.00;7393041;19;19970;-82
2023/05/31 12:07:06;;;;;;;;;;;;;;;23.60;29.09;98488.34;7393116;19;20412;-82
2023/05/31 12:09:33;;;;;;;;;;;;;;;23.72;30.61;98490.22;7390678;19;19974;-80
2023/05/31 12:12:03;;;;;;;;;;;;;;;23.75;29.94;98481.66;7392854;19;19937;-81
2023/05/31 12:14:30;;;;;;;;;;;;;;;23.79;28.52;98488.22;7390476;19;19919;-80
2023/05/31 12:16:57;;;;;;;;;;;;;;;23.98;28.73;98492.41;7388052;19;20392;-84
2023/05/31 12:19:24;;;;;;;;;;;;;;;24.16;28.19;98485.19;7384210;19;20490;-84
2023/05/31 12:21:50;;;;;;;;;;;;;;;24.36;27.98;98484.75;7392410;19;19979;-81
2023/05/31 12:24:17;;;;;;;;;;;;;;;24.36;25.58;98477.47;7390575;19;19918;-80
2023/05/31 12:26:45;;;;;;;;;;;;;;;24.38;27.00;98478.03;7389974;19;19914;-84
2023/05/31 12:29:12;;;;;;;;;;;;;;;24.15;27.68;98472.75;7386794;19;19980;-80
2023/05/31 12:31:42;;;;;;;;;;;;;;;24.06;28.00;98456.88;7391352;19;19922;-82
2023/05/31 12:34:18;;;;;;;;;;;;;;;24.04;29.33;98455.47;7390572;19;19915;-80
2023/05/31 12:36:46;;;;;;;;;;;;;;;23.97;28.23;98457.53;7389853;19;19915;-78
2023/05/31 12:39:13;;;;;;;;;;;;;;;24.05;28.10;98463.34;7388976;19;19978;-81
2023/05/31 12:41:44;;;;;;;;;;;;;;;24.02;27.85;98466.56;7390028;19;20345;-83
2023/05/31 12:44:18;;;;;;;;;;;;;;;24.07;29.63;98463.13;7387407;19;19939;-81
2023/05/31 12:46:46;;;;;;;;;;;;;;;24.06;26.41;98461.47;7393997;19;19986;-83
2023/05/31 12:49:13;;;;;;;;;;;;;;;24.17;28.29;98454.38;7394340;19;19919;-83
2023/05/31 12:51:41;;;;;;;;;;;;;;;24.42;25.85;98460.25;7390312;19;19926;-82
2023/05/31 12:54:11;;;;;;;;;;;;;;;24.53;28.36;98459.41;7392174;19;20825;-80
2023/05/31 12:56:38;;;;;;;;;;;;;;;24.66;27.51;98469.09;7387484;19;19915;-81
2023/05/31 12:59:05;;;;;;;;;;;;;;;24.55;24.17;98455.66;7384768;19;19929;-79